sensor_id;sensor_type;location;lat;lon;timestamp;P1;durP1;ratioP1;P2;durP2;ratioP2
9848;SDS011;4963;51.444;6.528;2023-04-06T00:00:08;10.80;;;7.33;;
9848;SDS011;4963;51.444;6.528;2023-04-06T00:02:38;11.20;;;7.50;;
9848;SDS011;4963;51.444;6.528;2023-04-06T00:05:05;9.70;;;7.20;;
9848;SDS011;4963;51.444;6.528;2023-04-06T00:07:33;11.33;;;8.50;;
9848;SDS011;4963;51.444;6.528;2023-04-06T00:10:00;10.67;;;7.93;;
9848;SDS011;4963;51.444;6.528;2023-04-06T00:12:27;9.80;;;7.60;;
9848;SDS011;4963;51.444;6.528;2023-04-06T00:14:54;10.00;;;7.60;;
9848;SDS011;4963;51.444;6.528;2023-04-06T00:17:21;11.37;;;7.77;;
9848;SDS011;4963;51.444;6.528;2023-04-06T00:19:49;11.20;;;7.60;;
9848;SDS011;4963;51.444;6.528;2023-04-06T00:22:16;9.53;;;6.80;;
9848;SDS011;4963;51.444;6.528;2023-04-06T00:24:43;10.40;;;7.73;;
9848;SDS011;4963;51.444;6.528;2023-04-06T00:27:10;11.27;;;7.77;;
9848;SDS011;4963;51.444;6.528;2023-04-06T00:29:37;10.43;;;7.30;;
9848;SDS011;4963;51.444;6.528;2023-04-06T00:32:04;11.87;;;8.23;;
9848;SDS011;4963;51.444;6.528;2023-04-06T00:34:31;12.10;;;7.83;;
9848;SDS011;4963;51.444;6.528;2023-04-06T00:36:59;11.30;;;7.90;;
9848;SDS011;4963;51.444;6.528;2023-04-06T00:39:26;12.10;;;8.00;;
9848;SDS011;4963;51.444;6.528;2023-04-06T00:41:52;12.00;;;8.20;;
9848;SDS011;4963;51.444;6.528;2023-04-06T00:44:20;10.27;;;8.33;;
9848;SDS011;4963;51.444;6.528;2023-04-06T00:46:47;11.17;;;8.30;;
9848;SDS011;4963;51.444;6.528;2023-04-06T00:49:14;10.97;;;7.97;;
9848;SDS011;4963;51.444;6.528;2023-04-06T00:51:42;11.30;;;8.97;;
9848;SDS011;4963;51.444;6.528;2023-04-06T00:54:10;12.80;;;8.83;;
9848;SDS011;4963;51.444;6.528;2023-04-06T00:56:37;13.33;;;8.27;;
9848;SDS011;4963;51.444;6.528;2023-04-06T00:59:04;14.57;;;8.67;;
9848;SDS011;4963;51.444;6.528;2023-04-06T01:01:30;11.93;;;8.40;;
9848;SDS011;4963;51.444;6.528;2023-04-06T01:03:58;12.20;;;8.23;;
9848;SDS011;4963;51.444;6.528;2023-04-06T01:06:25;11.87;;;8.03;;
9848;SDS011;4963;51.444;6.528;2023-04-06T01:08:52;13.30;;;8.70;;
9848;SDS011;4963;51.444;6.528;2023-04-06T01:11:20;11.67;;;8.77;;
9848;SDS011;4963;51.444;6.528;2023-04-06T01:13:47;11.57;;;8.20;;
9848;SDS011;4963;51.444;6.528;2023-04-06T01:16:14;14.37;;;8.47;;
9848;SDS011;4963;51.444;6.528;2023-04-06T01:18:41;11.63;;;8.50;;
9848;SDS011;4963;51.444;6.528;2023-04-06T01:21:08;12.70;;;8.53;;
9848;SDS011;4963;51.444;6.528;2023-04-06T01:26:11;11.17;;;8.10;;
9848;SDS011;4963;51.444;6.528;2023-04-06T01:28:38;11.97;;;8.67;;
9848;SDS011;4963;51.444;6.528;2023-04-06T01:31:06;12.17;;;8.90;;
9848;SDS011;4963;51.444;6.528;2023-04-06T01:33:33;12.57;;;8.23;;
9848;SDS011;4963;51.444;6.528;2023-04-06T01:36:00;12.27;;;7.83;;
9848;SDS011;4963;51.444;6.528;2023-04-06T01:38:27;11.87;;;8.30;;
9848;SDS011;4963;51.444;6.528;2023-04-06T01:40:56;10.90;;;7.70;;
9848;SDS011;4963;51.444;6.528;2023-04-06T01:43:23;11.33;;;7.87;;
9848;SDS011;4963;51.444;6.528;2023-04-06T01:45:49;10.53;;;8.10;;
9848;SDS011;4963;51.444;6.528;2023-04-06T01:48:16;11.00;;;7.87;;
9848;SDS011;4963;51.444;6.528;2023-04-06T01:50:43;11.77;;;8.10;;
9848;SDS011;4963;51.444;6.528;2023-04-06T01:53:10;10.83;;;8.13;;
9848;SDS011;4963;51.444;6.528;2023-04-06T01:55:37;9.60;;;7.70;;
9848;SDS011;4963;51.444;6.528;2023-04-06T01:58:05;12.60;;;8.40;;
9848;SDS011;4963;51.444;6.528;2023-04-06T02:00:32;13.07;;;7.80;;
9848;SDS011;4963;51.444;6.528;2023-04-06T02:02:59;12.67;;;7.93;;
9848;SDS011;4963;51.444;6.528;2023-04-06T02:05:27;10.37;;;8.20;;
9848;SDS011;4963;51.444;6.528;2023-04-06T02:07:55;12.07;;;8.73;;
9848;SDS011;4963;51.444;6.528;2023-04-06T02:10:22;11.00;;;7.93;;
9848;SDS011;4963;51.444;6.528;2023-04-06T02:12:49;12.73;;;8.97;;
9848;SDS011;4963;51.444;6.528;2023-04-06T02:15:18;11.70;;;7.33;;
9848;SDS011;4963;51.444;6.528;2023-04-06T02:17:44;11.27;;;7.67;;
9848;SDS011;4963;51.444;6.528;2023-04-06T02:20:11;11.83;;;7.90;;
9848;SDS011;4963;51.444;6.528;2023-04-06T02:22:38;9.73;;;7.53;;
9848;SDS011;4963;51.444;6.528;2023-04-06T02:25:06;11.23;;;8.00;;
9848;SDS011;4963;51.444;6.528;2023-04-06T02:27:33;13.63;;;8.57;;
9848;SDS011;4963;51.444;6.528;2023-04-06T02:30:01;11.50;;;7.37;;
9848;SDS011;4963;51.444;6.528;2023-04-06T02:32:29;11.00;;;7.50;;
9848;SDS011;4963;51.444;6.528;2023-04-06T02:34:56;10.53;;;7.57;;
9848;SDS011;4963;51.444;6.528;2023-04-06T02:37:23;13.57;;;7.73;;
9848;SDS011;4963;51.444;6.528;2023-04-06T02:39:50;12.07;;;7.93;;
9848;SDS011;4963;51.444;6.528;2023-04-06T02:42:16;15.27;;;8.87;;
9848;SDS011;4963;51.444;6.528;2023-04-06T02:44:43;10.93;;;7.97;;
9848;SDS011;4963;51.444;6.528;2023-04-06T02:47:10;10.53;;;7.53;;
9848;SDS011;4963;51.444;6.528;2023-04-06T02:49:38;11.87;;;9.13;;
9848;SDS011;4963;51.444;6.528;2023-04-06T02:52:05;11.93;;;8.10;;
9848;SDS011;4963;51.444;6.528;2023-04-06T02:54:32;11.30;;;7.50;;
9848;SDS011;4963;51.444;6.528;2023-04-06T02:56:59;12.40;;;8.80;;
9848;SDS011;4963;51.444;6.528;2023-04-06T02:59:26;13.63;;;8.00;;
9848;SDS011;4963;51.444;6.528;2023-04-06T03:01:53;11.27;;;8.40;;
9848;SDS011;4963;51.444;6.528;2023-04-06T03:04:20;11.50;;;7.60;;
9848;SDS011;4963;51.444;6.528;2023-04-06T03:06:51;10.23;;;7.47;;
9848;SDS011;4963;51.444;6.528;2023-04-06T03:09:20;11.30;;;8.13;;
9848;SDS011;4963;51.444;6.528;2023-04-06T03:11:47;12.20;;;7.83;;
9848;SDS011;4963;51.444;6.528;2023-04-06T03:14:14;12.50;;;8.63;;
9848;SDS011;4963;51.444;6.528;2023-04-06T03:16:42;11.87;;;8.60;;
9848;SDS011;4963;51.444;6.528;2023-04-06T03:19:09;14.73;;;9.70;;
9848;SDS011;4963;51.444;6.528;2023-04-06T03:21:36;15.37;;;9.60;;
9848;SDS011;4963;51.444;6.528;2023-04-06T03:24:05;14.33;;;8.97;;
9848;SDS011;4963;51.444;6.528;2023-04-06T03:26:32;11.73;;;9.30;;
9848;SDS011;4963;51.444;6.528;2023-04-06T03:28:59;18.90;;;9.93;;
9848;SDS011;4963;51.444;6.528;2023-04-06T03:31:26;15.50;;;9.23;;
9848;SDS011;4963;51.444;6.528;2023-04-06T03:33:53;14.23;;;8.87;;
9848;SDS011;4963;51.444;6.528;2023-04-06T03:36:20;13.87;;;9.23;;
9848;SDS011;4963;51.444;6.528;2023-04-06T03:38:47;12.27;;;9.00;;
9848;SDS011;4963;51.444;6.528;2023-04-06T03:41:15;15.90;;;8.53;;
9848;SDS011;4963;51.444;6.528;2023-04-06T03:43:42;13.03;;;9.07;;
9848;SDS011;4963;51.444;6.528;2023-04-06T03:46:09;14.73;;;8.90;;
9848;SDS011;4963;51.444;6.528;2023-04-06T03:48:36;15.17;;;9.67;;
9848;SDS011;4963;51.444;6.528;2023-04-06T03:51:03;12.30;;;9.27;;
9848;SDS011;4963;51.444;6.528;2023-04-06T03:53:30;13.33;;;9.37;;
9848;SDS011;4963;51.444;6.528;2023-04-06T03:55:57;15.43;;;10.17;;
9848;SDS011;4963;51.444;6.528;2023-04-06T03:58:25;13.27;;;10.23;;
9848;SDS011;4963;51.444;6.528;2023-04-06T04:00:52;14.97;;;9.57;;
9848;SDS011;4963;51.444;6.528;2023-04-06T04:03:19;14.27;;;10.37;;
9848;SDS011;4963;51.444;6.528;2023-04-06T04:05:46;18.00;;;9.73;;
9848;SDS011;4963;51.444;6.528;2023-04-06T04:08:13;19.93;;;10.50;;
9848;SDS011;4963;51.444;6.528;2023-04-06T04:10:40;14.80;;;9.10;;
9848;SDS011;4963;51.444;6.528;2023-04-06T04:13:07;13.07;;;9.73;;
9848;SDS011;4963;51.444;6.528;2023-04-06T04:15:35;14.77;;;10.07;;
9848;SDS011;4963;51.444;6.528;2023-04-06T04:18:02;11.60;;;9.40;;
9848;SDS011;4963;51.444;6.528;2023-04-06T04:20:29;13.80;;;10.30;;
9848;SDS011;4963;51.444;6.528;2023-04-06T04:22:56;12.90;;;9.50;;
9848;SDS011;4963;51.444;6.528;2023-04-06T04:25:23;13.40;;;9.83;;
9848;SDS011;4963;51.444;6.528;2023-04-06T04:27:50;15.67;;;10.10;;
9848;SDS011;4963;51.444;6.528;2023-04-06T04:30:16;16.60;;;10.00;;
9848;SDS011;4963;51.444;6.528;2023-04-06T04:32:45;14.37;;;10.10;;
9848;SDS011;4963;51.444;6.528;2023-04-06T04:35:12;19.23;;;10.13;;
9848;SDS011;4963;51.444;6.528;2023-04-06T04:37:40;14.87;;;11.03;;
9848;SDS011;4963;51.444;6.528;2023-04-06T04:40:08;13.90;;;10.03;;
9848;SDS011;4963;51.444;6.528;2023-04-06T04:42:35;14.50;;;10.17;;
9848;SDS011;4963;51.444;6.528;2023-04-06T04:45:02;14.10;;;10.13;;
9848;SDS011;4963;51.444;6.528;2023-04-06T04:47:29;18.83;;;11.47;;
9848;SDS011;4963;51.444;6.528;2023-04-06T04:49:57;14.37;;;10.93;;
9848;SDS011;4963;51.444;6.528;2023-04-06T04:52:24;20.30;;;11.70;;
9848;SDS011;4963;51.444;6.528;2023-04-06T04:54:51;17.30;;;10.97;;
9848;SDS011;4963;51.444;6.528;2023-04-06T04:57:18;15.93;;;10.07;;
9848;SDS011;4963;51.444;6.528;2023-04-06T04:59:45;13.43;;;9.50;;
9848;SDS011;4963;51.444;6.528;2023-04-06T05:02:12;14.40;;;9.67;;
9848;SDS011;4963;51.444;6.528;2023-04-06T05:04:39;16.33;;;10.60;;
9848;SDS011;4963;51.444;6.528;2023-04-06T05:07:08;12.77;;;10.77;;
9848;SDS011;4963;51.444;6.528;2023-04-06T05:09:35;14.80;;;10.37;;
9848;SDS011;4963;51.444;6.528;2023-04-06T05:12:02;16.03;;;10.90;;
9848;SDS011;4963;51.444;6.528;2023-04-06T05:14:29;14.17;;;10.07;;
9848;SDS011;4963;51.444;6.528;2023-04-06T05:16:56;14.43;;;10.10;;
9848;SDS011;4963;51.444;6.528;2023-04-06T05:19:23;14.80;;;10.60;;
9848;SDS011;4963;51.444;6.528;2023-04-06T05:21:50;19.97;;;11.27;;
9848;SDS011;4963;51.444;6.528;2023-04-06T05:24:18;19.37;;;11.50;;
9848;SDS011;4963;51.444;6.528;2023-04-06T05:26:45;22.70;;;11.20;;
9848;SDS011;4963;51.444;6.528;2023-04-06T05:29:12;17.40;;;10.57;;
9848;SDS011;4963;51.444;6.528;2023-04-06T05:31:38;21.23;;;11.07;;
9848;SDS011;4963;51.444;6.528;2023-04-06T05:34:05;20.00;;;10.77;;
9848;SDS011;4963;51.444;6.528;2023-04-06T05:36:34;17.17;;;11.13;;
9848;SDS011;4963;51.444;6.528;2023-04-06T05:39:01;18.60;;;10.07;;
9848;SDS011;4963;51.444;6.528;2023-04-06T05:41:29;16.57;;;10.87;;
9848;SDS011;4963;51.444;6.528;2023-04-06T05:43:56;13.97;;;9.50;;
9848;SDS011;4963;51.444;6.528;2023-04-06T05:46:23;23.63;;;10.30;;
9848;SDS011;4963;51.444;6.528;2023-04-06T05:48:50;18.33;;;10.23;;
9848;SDS011;4963;51.444;6.528;2023-04-06T05:51:16;15.80;;;10.20;;
9848;SDS011;4963;51.444;6.528;2023-04-06T05:53:46;13.10;;;10.07;;
9848;SDS011;4963;51.444;6.528;2023-04-06T05:56:13;14.03;;;10.13;;
9848;SDS011;4963;51.444;6.528;2023-04-06T05:58:41;14.07;;;9.40;;
9848;SDS011;4963;51.444;6.528;2023-04-06T06:01:08;16.20;;;9.80;;
9848;SDS011;4963;51.444;6.528;2023-04-06T06:03:35;15.80;;;10.43;;
9848;SDS011;4963;51.444;6.528;2023-04-06T06:06:02;12.97;;;9.10;;
9848;SDS011;4963;51.444;6.528;2023-04-06T06:08:30;13.93;;;9.97;;
9848;SDS011;4963;51.444;6.528;2023-04-06T06:10:57;13.77;;;9.60;;
9848;SDS011;4963;51.444;6.528;2023-04-06T06:13:23;13.93;;;9.80;;
9848;SDS011;4963;51.444;6.528;2023-04-06T06:15:52;13.37;;;9.43;;
9848;SDS011;4963;51.444;6.528;2023-04-06T06:18:19;12.77;;;8.60;;
9848;SDS011;4963;51.444;6.528;2023-04-06T06:20:45;13.97;;;8.63;;
9848;SDS011;4963;51.444;6.528;2023-04-06T06:23:12;13.20;;;8.53;;
9848;SDS011;4963;51.444;6.528;2023-04-06T06:25:40;10.87;;;8.87;;
9848;SDS011;4963;51.444;6.528;2023-04-06T06:28:07;13.87;;;8.90;;
9848;SDS011;4963;51.444;6.528;2023-04-06T06:30:33;11.53;;;9.23;;
9848;SDS011;4963;51.444;6.528;2023-04-06T06:33:02;11.40;;;8.67;;
9848;SDS011;4963;51.444;6.528;2023-04-06T06:35:29;13.53;;;9.47;;
9848;SDS011;4963;51.444;6.528;2023-04-06T06:37:55;14.10;;;8.90;;
9848;SDS011;4963;51.444;6.528;2023-04-06T06:40:22;18.53;;;10.00;;
9848;SDS011;4963;51.444;6.528;2023-04-06T06:42:51;13.30;;;8.73;;
9848;SDS011;4963;51.444;6.528;2023-04-06T06:45:18;13.97;;;9.40;;
9848;SDS011;4963;51.444;6.528;2023-04-06T06:47:45;12.90;;;8.70;;
9848;SDS011;4963;51.444;6.528;2023-04-06T06:50:13;13.53;;;9.77;;
9848;SDS011;4963;51.444;6.528;2023-04-06T06:52:40;13.70;;;8.60;;
9848;SDS011;4963;51.444;6.528;2023-04-06T06:55:08;12.50;;;8.57;;
9848;SDS011;4963;51.444;6.528;2023-04-06T06:57:36;13.47;;;9.87;;
9848;SDS011;4963;51.444;6.528;2023-04-06T07:00:03;14.33;;;9.80;;
9848;SDS011;4963;51.444;6.528;2023-04-06T07:02:33;11.43;;;8.70;;
9848;SDS011;4963;51.444;6.528;2023-04-06T07:05:00;13.73;;;9.93;;
9848;SDS011;4963;51.444;6.528;2023-04-06T07:07:29;12.87;;;9.17;;
9848;SDS011;4963;51.444;6.528;2023-04-06T07:09:56;15.90;;;9.13;;
9848;SDS011;4963;51.444;6.528;2023-04-06T07:12:23;12.57;;;8.20;;
9848;SDS011;4963;51.444;6.528;2023-04-06T07:14:50;14.23;;;9.37;;
9848;SDS011;4963;51.444;6.528;2023-04-06T07:17:17;13.33;;;9.13;;
9848;SDS011;4963;51.444;6.528;2023-04-06T07:19:43;13.70;;;8.77;;
9848;SDS011;4963;51.444;6.528;2023-04-06T07:22:11;11.40;;;9.07;;
9848;SDS011;4963;51.444;6.528;2023-04-06T07:24:39;15.03;;;9.27;;
9848;SDS011;4963;51.444;6.528;2023-04-06T07:27:06;11.73;;;9.40;;
9848;SDS011;4963;51.444;6.528;2023-04-06T07:29:33;12.67;;;9.53;;
9848;SDS011;4963;51.444;6.528;2023-04-06T07:32:00;13.40;;;9.70;;
9848;SDS011;4963;51.444;6.528;2023-04-06T07:34:27;12.13;;;8.97;;
9848;SDS011;4963;51.444;6.528;2023-04-06T07:36:54;13.07;;;9.70;;
9848;SDS011;4963;51.444;6.528;2023-04-06T07:39:21;11.70;;;9.67;;
9848;SDS011;4963;51.444;6.528;2023-04-06T07:41:49;12.03;;;9.20;;
9848;SDS011;4963;51.444;6.528;2023-04-06T07:44:16;16.77;;;10.17;;
9848;SDS011;4963;51.444;6.528;2023-04-06T07:46:43;16.80;;;9.47;;
9848;SDS011;4963;51.444;6.528;2023-04-06T07:49:10;13.43;;;9.43;;
9848;SDS011;4963;51.444;6.528;2023-04-06T07:51:37;12.20;;;9.30;;
9848;SDS011;4963;51.444;6.528;2023-04-06T07:54:04;14.50;;;9.00;;
9848;SDS011;4963;51.444;6.528;2023-04-06T07:56:31;15.80;;;9.67;;
9848;SDS011;4963;51.444;6.528;2023-04-06T07:58:59;14.47;;;10.33;;
9848;SDS011;4963;51.444;6.528;2023-04-06T08:01:27;11.93;;;9.20;;
9848;SDS011;4963;51.444;6.528;2023-04-06T08:03:54;13.77;;;10.37;;
9848;SDS011;4963;51.444;6.528;2023-04-06T08:06:21;15.10;;;9.70;;
9848;SDS011;4963;51.444;6.528;2023-04-06T08:08:48;11.23;;;9.17;;
9848;SDS011;4963;51.444;6.528;2023-04-06T08:11:15;15.67;;;9.27;;
9848;SDS011;4963;51.444;6.528;2023-04-06T08:13:42;12.97;;;9.67;;
9848;SDS011;4963;51.444;6.528;2023-04-06T08:16:11;13.80;;;9.27;;
9848;SDS011;4963;51.444;6.528;2023-04-06T08:18:38;12.53;;;9.17;;
9848;SDS011;4963;51.444;6.528;2023-04-06T08:21:05;16.67;;;10.50;;
9848;SDS011;4963;51.444;6.528;2023-04-06T08:23:32;15.03;;;9.47;;
9848;SDS011;4963;51.444;6.528;2023-04-06T08:25:59;15.50;;;9.27;;
9848;SDS011;4963;51.444;6.528;2023-04-06T08:28:26;13.30;;;10.23;;
9848;SDS011;4963;51.444;6.528;2023-04-06T08:30:52;12.70;;;9.50;;
9848;SDS011;4963;51.444;6.528;2023-04-06T08:33:21;14.73;;;9.70;;
9848;SDS011;4963;51.444;6.528;2023-04-06T08:35:48;13.67;;;9.60;;
9848;SDS011;4963;51.444;6.528;2023-04-06T08:38:14;14.63;;;10.07;;
9848;SDS011;4963;51.444;6.528;2023-04-06T08:40:41;16.73;;;10.43;;
9848;SDS011;4963;51.444;6.528;2023-04-06T08:43:14;14.10;;;9.27;;
9848;SDS011;4963;51.444;6.528;2023-04-06T08:45:43;12.63;;;9.27;;
9848;SDS011;4963;51.444;6.528;2023-04-06T08:48:10;13.27;;;9.53;;
9848;SDS011;4963;51.444;6.528;2023-04-06T08:50:39;16.43;;;10.47;;
9848;SDS011;4963;51.444;6.528;2023-04-06T08:53:08;14.80;;;10.67;;
9848;SDS011;4963;51.444;6.528;2023-04-06T08:55:35;12.73;;;9.17;;
9848;SDS011;4963;51.444;6.528;2023-04-06T08:58:02;15.07;;;10.53;;
9848;SDS011;4963;51.444;6.528;2023-04-06T09:00:32;19.10;;;10.60;;
9848;SDS011;4963;51.444;6.528;2023-04-06T09:03:02;13.30;;;9.67;;
9848;SDS011;4963;51.444;6.528;2023-04-06T09:05:31;16.10;;;9.67;;
9848;SDS011;4963;51.444;6.528;2023-04-06T09:08:00;15.77;;;10.90;;
9848;SDS011;4963;51.444;6.528;2023-04-06T09:10:27;16.10;;;10.90;;
9848;SDS011;4963;51.444;6.528;2023-04-06T09:13:02;15.17;;;10.50;;
9848;SDS011;4963;51.444;6.528;2023-04-06T09:15:29;15.30;;;10.13;;
9848;SDS011;4963;51.444;6.528;2023-04-06T09:17:56;15.40;;;11.13;;
9848;SDS011;4963;51.444;6.528;2023-04-06T09:20:24;14.03;;;10.67;;
9848;SDS011;4963;51.444;6.528;2023-04-06T09:22:53;18.13;;;10.57;;
9848;SDS011;4963;51.444;6.528;2023-04-06T09:25:22;15.77;;;10.93;;
9848;SDS011;4963;51.444;6.528;2023-04-06T09:27:57;17.50;;;11.90;;
9848;SDS011;4963;51.444;6.528;2023-04-06T09:30:25;17.43;;;10.67;;
9848;SDS011;4963;51.444;6.528;2023-04-06T09:32:53;14.30;;;11.00;;
9848;SDS011;4963;51.444;6.528;2023-04-06T09:35:21;20.80;;;10.57;;
9848;SDS011;4963;51.444;6.528;2023-04-06T09:37:48;17.70;;;11.57;;
9848;SDS011;4963;51.444;6.528;2023-04-06T09:40:16;15.80;;;11.30;;
9848;SDS011;4963;51.444;6.528;2023-04-06T09:42:46;15.63;;;10.90;;
9848;SDS011;4963;51.444;6.528;2023-04-06T09:45:15;20.03;;;11.33;;
9848;SDS011;4963;51.444;6.528;2023-04-06T09:47:42;17.13;;;10.50;;
9848;SDS011;4963;51.444;6.528;2023-04-06T09:50:11;18.13;;;11.70;;
9848;SDS011;4963;51.444;6.528;2023-04-06T09:52:40;17.47;;;11.23;;
9848;SDS011;4963;51.444;6.528;2023-04-06T09:55:11;16.50;;;10.97;;
9848;SDS011;4963;51.444;6.528;2023-04-06T09:57:43;14.67;;;10.17;;
9848;SDS011;4963;51.444;6.528;2023-04-06T10:00:17;17.83;;;10.93;;
9848;SDS011;4963;51.444;6.528;2023-04-06T10:02:48;18.10;;;11.23;;
9848;SDS011;4963;51.444;6.528;2023-04-06T10:05:22;16.43;;;10.83;;
9848;SDS011;4963;51.444;6.528;2023-04-06T10:07:57;16.73;;;11.10;;
9848;SDS011;4963;51.444;6.528;2023-04-06T10:10:26;17.97;;;11.30;;
9848;SDS011;4963;51.444;6.528;2023-04-06T10:12:55;19.37;;;11.97;;
9848;SDS011;4963;51.444;6.528;2023-04-06T10:15:23;16.80;;;10.63;;
9848;SDS011;4963;51.444;6.528;2023-04-06T10:17:50;14.97;;;11.00;;
9848;SDS011;4963;51.444;6.528;2023-04-06T10:20:18;17.90;;;11.00;;
9848;SDS011;4963;51.444;6.528;2023-04-06T10:22:51;19.47;;;11.73;;
9848;SDS011;4963;51.444;6.528;2023-04-06T10:25:28;17.13;;;11.53;;
9848;SDS011;4963;51.444;6.528;2023-04-06T10:28:00;15.93;;;11.20;;
9848;SDS011;4963;51.444;6.528;2023-04-06T10:30:27;15.53;;;10.53;;
9848;SDS011;4963;51.444;6.528;2023-04-06T10:32:55;18.67;;;11.63;;
9848;SDS011;4963;51.444;6.528;2023-04-06T10:35:22;16.90;;;11.47;;
9848;SDS011;4963;51.444;6.528;2023-04-06T10:37:51;16.37;;;10.70;;
9848;SDS011;4963;51.444;6.528;2023-04-06T10:40:22;18.17;;;12.13;;
9848;SDS011;4963;51.444;6.528;2023-04-06T10:42:51;18.27;;;12.07;;
9848;SDS011;4963;51.444;6.528;2023-04-06T10:45:20;17.43;;;11.47;;
9848;SDS011;4963;51.444;6.528;2023-04-06T10:47:48;18.17;;;12.27;;
9848;SDS011;4963;51.444;6.528;2023-04-06T10:50:15;18.67;;;12.23;;
9848;SDS011;4963;51.444;6.528;2023-04-06T10:52:43;17.60;;;12.03;;
9848;SDS011;4963;51.444;6.528;2023-04-06T10:55:11;18.30;;;12.03;;
9848;SDS011;4963;51.444;6.528;2023-04-06T10:57:39;19.03;;;12.43;;
9848;SDS011;4963;51.444;6.528;2023-04-06T11:00:07;20.07;;;12.80;;
9848;SDS011;4963;51.444;6.528;2023-04-06T11:02:36;15.17;;;11.77;;
9848;SDS011;4963;51.444;6.528;2023-04-06T11:05:04;20.13;;;12.63;;
9848;SDS011;4963;51.444;6.528;2023-04-06T11:07:31;18.63;;;12.27;;
9848;SDS011;4963;51.444;6.528;2023-04-06T11:09:58;21.33;;;11.93;;
9848;SDS011;4963;51.444;6.528;2023-04-06T11:12:25;16.37;;;11.50;;
9848;SDS011;4963;51.444;6.528;2023-04-06T11:14:55;17.67;;;11.67;;
9848;SDS011;4963;51.444;6.528;2023-04-06T11:17:27;19.50;;;11.93;;
9848;SDS011;4963;51.444;6.528;2023-04-06T11:19:55;22.07;;;11.93;;
9848;SDS011;4963;51.444;6.528;2023-04-06T11:22:23;20.17;;;12.47;;
9848;SDS011;4963;51.444;6.528;2023-04-06T11:24:50;19.37;;;11.77;;
9848;SDS011;4963;51.444;6.528;2023-04-06T11:27:17;17.37;;;11.47;;
9848;SDS011;4963;51.444;6.528;2023-04-06T11:29:45;19.67;;;12.47;;
9848;SDS011;4963;51.444;6.528;2023-04-06T11:32:19;21.40;;;13.63;;
9848;SDS011;4963;51.444;6.528;2023-04-06T11:34:48;20.93;;;13.80;;
9848;SDS011;4963;51.444;6.528;2023-04-06T11:37:16;18.50;;;12.17;;
9848;SDS011;4963;51.444;6.528;2023-04-06T11:39:46;18.70;;;12.10;;
9848;SDS011;4963;51.444;6.528;2023-04-06T11:42:20;19.53;;;12.97;;
9848;SDS011;4963;51.444;6.528;2023-04-06T11:44:49;19.40;;;12.83;;
9848;SDS011;4963;51.444;6.528;2023-04-06T11:47:18;19.63;;;12.90;;
9848;SDS011;4963;51.444;6.528;2023-04-06T11:49:47;21.87;;;13.23;;
9848;SDS011;4963;51.444;6.528;2023-04-06T11:52:16;18.47;;;12.63;;
9848;SDS011;4963;51.444;6.528;2023-04-06T11:54:45;19.83;;;13.50;;
9848;SDS011;4963;51.444;6.528;2023-04-06T11:57:13;15.97;;;11.77;;
9848;SDS011;4963;51.444;6.528;2023-04-06T11:59:40;17.70;;;12.50;;
9848;SDS011;4963;51.444;6.528;2023-04-06T12:02:07;16.07;;;11.37;;
9848;SDS011;4963;51.444;6.528;2023-04-06T12:04:34;15.13;;;9.83;;
9848;SDS011;4963;51.444;6.528;2023-04-06T12:07:01;12.80;;;9.87;;
9848;SDS011;4963;51.444;6.528;2023-04-06T12:09:30;16.57;;;11.53;;
9848;SDS011;4963;51.444;6.528;2023-04-06T12:11:57;15.57;;;11.17;;
9848;SDS011;4963;51.444;6.528;2023-04-06T12:14:24;14.73;;;10.50;;
9848;SDS011;4963;51.444;6.528;2023-04-06T12:16:51;16.80;;;10.40;;
9848;SDS011;4963;51.444;6.528;2023-04-06T12:19:18;14.10;;;10.07;;
9848;SDS011;4963;51.444;6.528;2023-04-06T12:21:45;17.80;;;10.60;;
9848;SDS011;4963;51.444;6.528;2023-04-06T12:24:11;16.37;;;9.93;;
9848;SDS011;4963;51.444;6.528;2023-04-06T12:26:40;13.93;;;9.37;;
9848;SDS011;4963;51.444;6.528;2023-04-06T12:29:07;13.80;;;8.87;;
9848;SDS011;4963;51.444;6.528;2023-04-06T12:31:34;13.53;;;8.57;;
9848;SDS011;4963;51.444;6.528;2023-04-06T12:34:03;10.93;;;6.80;;
9848;SDS011;4963;51.444;6.528;2023-04-06T12:36:30;12.43;;;7.23;;
9848;SDS011;4963;51.444;6.528;2023-04-06T12:38:57;10.23;;;6.47;;
9848;SDS011;4963;51.444;6.528;2023-04-06T12:41:25;10.83;;;6.80;;
9848;SDS011;4963;51.444;6.528;2023-04-06T12:43:53;8.87;;;5.73;;
9848;SDS011;4963;51.444;6.528;2023-04-06T12:46:20;7.73;;;5.63;;
9848;SDS011;4963;51.444;6.528;2023-04-06T12:48:47;7.90;;;5.50;;
9848;SDS011;4963;51.444;6.528;2023-04-06T12:51:14;7.60;;;4.97;;
9848;SDS011;4963;51.444;6.528;2023-04-06T12:53:42;7.30;;;5.40;;
9848;SDS011;4963;51.444;6.528;2023-04-06T12:56:12;7.83;;;5.73;;
9848;SDS011;4963;51.444;6.528;2023-04-06T12:58:39;8.87;;;5.77;;
9848;SDS011;4963;51.444;6.528;2023-04-06T13:01:08;8.67;;;5.50;;
9848;SDS011;4963;51.444;6.528;2023-04-06T13:03:35;7.77;;;5.27;;
9848;SDS011;4963;51.444;6.528;2023-04-06T13:06:02;7.43;;;5.60;;
9848;SDS011;4963;51.444;6.528;2023-04-06T13:08:29;9.87;;;5.67;;
9848;SDS011;4963;51.444;6.528;2023-04-06T13:10:56;10.70;;;6.30;;
9848;SDS011;4963;51.444;6.528;2023-04-06T13:13:24;8.20;;;6.47;;
9848;SDS011;4963;51.444;6.528;2023-04-06T13:15:51;9.30;;;6.60;;
9848;SDS011;4963;51.444;6.528;2023-04-06T13:18:20;11.67;;;7.00;;
9848;SDS011;4963;51.444;6.528;2023-04-06T13:20:47;8.67;;;7.10;;
9848;SDS011;4963;51.444;6.528;2023-04-06T13:23:15;12.73;;;7.57;;
9848;SDS011;4963;51.444;6.528;2023-04-06T13:25:42;9.37;;;6.70;;
9848;SDS011;4963;51.444;6.528;2023-04-06T13:28:10;11.07;;;7.10;;
9848;SDS011;4963;51.444;6.528;2023-04-06T13:30:37;8.67;;;6.50;;
9848;SDS011;4963;51.444;6.528;2023-04-06T13:33:04;8.03;;;6.60;;
9848;SDS011;4963;51.444;6.528;2023-04-06T13:35:33;12.27;;;7.20;;
9848;SDS011;4963;51.444;6.528;2023-04-06T13:38:00;10.20;;;7.60;;
9848;SDS011;4963;51.444;6.528;2023-04-06T13:40:27;9.93;;;7.20;;
9848;SDS011;4963;51.444;6.528;2023-04-06T13:42:54;10.83;;;7.30;;
9848;SDS011;4963;51.444;6.528;2023-04-06T13:45:21;9.87;;;7.37;;
9848;SDS011;4963;51.444;6.528;2023-04-06T13:47:48;9.80;;;7.77;;
9848;SDS011;4963;51.444;6.528;2023-04-06T13:50:15;18.20;;;8.60;;
9848;SDS011;4963;51.444;6.528;2023-04-06T13:52:43;10.70;;;7.77;;
9848;SDS011;4963;51.444;6.528;2023-04-06T13:55:10;12.17;;;8.27;;
9848;SDS011;4963;51.444;6.528;2023-04-06T13:57:37;11.50;;;8.17;;
9848;SDS011;4963;51.444;6.528;2023-04-06T14:00:04;11.13;;;7.97;;
9848;SDS011;4963;51.444;6.528;2023-04-06T14:02:32;10.07;;;7.77;;
9848;SDS011;4963;51.444;6.528;2023-04-06T14:04:59;13.50;;;7.90;;
9848;SDS011;4963;51.444;6.528;2023-04-06T14:07:26;24.37;;;9.13;;
9848;SDS011;4963;51.444;6.528;2023-04-06T14:09:54;10.60;;;8.43;;
9848;SDS011;4963;51.444;6.528;2023-04-06T14:12:20;12.90;;;8.87;;
9848;SDS011;4963;51.444;6.528;2023-04-06T14:14:47;12.90;;;8.97;;
9848;SDS011;4963;51.444;6.528;2023-04-06T14:17:15;13.90;;;10.33;;
9848;SDS011;4963;51.444;6.528;2023-04-06T14:19:41;11.00;;;7.90;;
9848;SDS011;4963;51.444;6.528;2023-04-06T14:22:09;12.33;;;8.67;;
9848;SDS011;4963;51.444;6.528;2023-04-06T14:24:36;15.57;;;9.17;;
9848;SDS011;4963;51.444;6.528;2023-04-06T14:27:04;13.77;;;9.90;;
9848;SDS011;4963;51.444;6.528;2023-04-06T14:29:31;12.37;;;9.30;;
9848;SDS011;4963;51.444;6.528;2023-04-06T14:31:58;13.70;;;9.20;;
9848;SDS011;4963;51.444;6.528;2023-04-06T14:34:25;11.37;;;9.03;;
9848;SDS011;4963;51.444;6.528;2023-04-06T14:36:52;13.10;;;9.23;;
9848;SDS011;4963;51.444;6.528;2023-04-06T14:39:19;14.20;;;9.53;;
9848;SDS011;4963;51.444;6.528;2023-04-06T14:41:46;12.37;;;9.27;;
9848;SDS011;4963;51.444;6.528;2023-04-06T14:44:15;13.73;;;9.17;;
9848;SDS011;4963;51.444;6.528;2023-04-06T14:46:41;13.07;;;9.70;;
9848;SDS011;4963;51.444;6.528;2023-04-06T14:49:08;11.93;;;8.93;;
9848;SDS011;4963;51.444;6.528;2023-04-06T14:51:35;11.63;;;9.00;;
9848;SDS011;4963;51.444;6.528;2023-04-06T14:54:02;12.30;;;9.07;;
9848;SDS011;4963;51.444;6.528;2023-04-06T14:56:29;12.00;;;8.50;;
9848;SDS011;4963;51.444;6.528;2023-04-06T14:58:57;14.73;;;9.27;;
9848;SDS011;4963;51.444;6.528;2023-04-06T15:01:27;15.33;;;9.10;;